Time;durP1;ratioP1;P1;durP2;ratioP2;P2;SDS_P1;SDS_P2;PMS_P1;PMS_P2;Temp;Humidity;BMP_temperature;BMP_pressure;BME280_temperature;BME280_humidity;BME280_pressure;Samples;Min_cycle;Max_cycle;Signal;HPM_P1;HPM_P2
2022/09/13 00:01:31;;;;;;;4.45;3.05;;;;;;;16.84;nan;-24286.38;5046541;28;20182;-63
2022/09/13 00:03:57;;;;;;;4.20;3.03;;;;;;;17.07;nan;-24292.81;5041956;28;20183;-64
2022/09/13 00:06:22;;;;;;;4.78;3.35;;;;;;;16.73;nan;-24283.31;5045675;28;20539;-63
2022/09/13 00:08:48;;;;;;;4.25;2.90;;;;;;;16.78;nan;-24284.84;5036672;28;20736;-65
2022/09/13 00:11:19;;;;;;;5.25;3.38;;;;;;;16.90;nan;-24288.06;5048483;28;20214;-65
2022/09/13 00:13:45;;;;;;;4.03;2.97;;;;;;;16.37;nan;-24273.38;5039104;28;20238;-65
2022/09/13 00:16:13;;;;;;;5.45;3.47;;;;;;;16.72;nan;-24283.03;5039559;28;20180;-63
2022/09/13 00:18:40;;;;;;;4.53;3.05;;;;;;;16.73;nan;-24283.44;5043930;28;20189;-65
2022/09/13 00:21:14;;;;;;;4.78;2.92;;;;;;;16.48;nan;-24276.44;5036851;28;20310;-63
2022/09/13 00:23:43;;;;;;;4.55;2.95;;;;;;;16.55;nan;-24278.41;5045640;28;20202;-65
2022/09/13 00:26:12;;;;;;;5.32;3.10;;;;;;;16.62;nan;-24280.22;5042789;28;20190;-63
2022/09/13 00:28:38;;;;;;;5.68;3.00;;;;;;;16.63;nan;-24280.66;5045895;28;20191;-63
2022/09/13 00:31:06;;;;;;;6.47;2.92;;;;;;;16.73;nan;-24283.44;5048952;28;20190;-64
2022/09/13 00:33:31;;;;;;;3.65;2.85;;;;;;;16.44;nan;-24275.19;5042762;28;20183;-64
2022/09/13 00:35:57;;;;;;;4.72;3.13;;;;;;;16.70;nan;-24282.59;5039094;28;20175;-65
2022/09/13 00:38:23;;;;;;;5.63;3.05;;;;;;;16.96;nan;-24289.59;5044906;28;20214;-65
2022/09/13 00:40:48;;;;;;;4.38;2.95;;;;;;;17.04;nan;-24291.97;5038588;28;20620;-64
2022/09/13 00:43:39;;;;;;;4.05;2.72;;;;;;;17.26;nan;-24297.97;5044601;28;20281;-65
2022/09/13 00:46:05;;;;;;;3.30;2.60;;;;;;;17.22;nan;-24296.84;5049924;28;20269;-66
2022/09/13 00:48:33;;;;;;;3.17;2.58;;;;;;;17.06;nan;-24292.38;5048930;28;20618;-63
2022/09/13 00:51:01;;;;;;;4.10;2.90;;;;;;;17.19;nan;-24296.00;5043405;28;20260;-64
2022/09/13 00:53:34;;;;;;;4.28;2.83;;;;;;;17.05;nan;-24292.09;5039845;28;20179;-63
2022/09/13 00:56:08;;;;;;;3.95;2.95;;;;;;;17.01;nan;-24291.13;5047159;28;20240;-66
2022/09/13 00:58:40;;;;;;;4.18;2.83;;;;;;;16.68;nan;-24281.91;5050217;28;20265;-64
2022/09/13 01:01:10;;;;;;;3.47;2.72;;;;;;;16.77;nan;-24284.56;5048718;28;20220;-65
2022/09/13 01:03:36;;;;;;;3.53;2.75;;;;;;;16.70;nan;-24282.59;5038477;28;20214;-65
2022/09/13 01:06:10;;;;;;;3.35;2.78;;;;;;;16.88;nan;-24287.50;5040549;28;20240;-64
2022/09/13 01:08:38;;;;;;;4.07;3.03;;;;;;;16.97;nan;-24289.88;5041182;28;20269;-65
2022/09/13 01:11:10;;;;;;;3.33;2.58;;;;;;;16.88;nan;-24287.34;5038279;28;20664;-65
2022/09/13 01:13:38;;;;;;;3.05;2.42;;;;;;;16.79;nan;-24284.97;5040783;28;20190;-66
2022/09/13 01:16:04;;;;;;;3.20;2.47;;;;;;;16.75;nan;-24284.00;5039917;28;20206;-64
2022/09/13 01:18:30;;;;;;;4.68;2.65;;;;;;;17.00;nan;-24290.72;5040916;28;20240;-63
2022/09/13 01:21:14;;;;;;;4.57;2.40;;;;;;;17.14;nan;-24294.63;5042708;28;20659;-64
2022/09/13 01:24:07;;;;;;;2.72;2.38;;;;;;;17.22;nan;-24296.84;5041341;28;20178;-63
2022/09/13 01:26:49;;;;;;;3.38;2.55;;;;;;;17.07;nan;-24292.66;5042337;28;20174;-67
2022/09/13 01:29:26;;;;;;;4.75;2.75;;;;;;;17.13;nan;-24294.47;5041701;28;20753;-63
2022/09/13 01:32:03;;;;;;;4.93;2.70;;;;;;;17.09;nan;-24293.22;5039853;28;20198;-65
2022/09/13 01:34:56;;;;;;;4.93;2.90;;;;;;;17.12;nan;-24294.06;5039380;28;20688;-66
2022/09/13 01:37:29;;;;;;;3.95;2.70;;;;;;;17.06;nan;-24292.53;5036292;28;20211;-66
2022/09/13 01:40:08;;;;;;;4.32;2.58;;;;;;;17.08;nan;-24292.94;5040383;28;20183;-64
2022/09/13 01:43:06;;;;;;;4.13;2.80;;;;;;;16.97;nan;-24289.88;5042964;28;20230;-66
2022/09/13 01:45:35;;;;;;;3.60;2.53;;;;;;;16.98;nan;-24290.28;5039023;28;20196;-64
2022/09/13 01:48:19;;;;;;;3.17;2.38;;;;;;;16.60;nan;-24279.81;5040929;28;20214;-65
2022/09/13 01:51:07;;;;;;;3.70;2.60;;;;;;;16.96;nan;-24289.72;5044963;28;20242;-63
2022/09/13 01:53:52;;;;;;;4.40;3.10;;;;;;;16.92;nan;-24288.47;5033600;28;20171;-65
2022/09/13 01:56:27;;;;;;;3.15;2.35;;;;;;;16.52;nan;-24277.44;5041259;28;20178;-66
2022/09/13 01:58:58;;;;;;;3.63;2.55;;;;;;;16.55;nan;-24278.41;5044104;28;20253;-63
2022/09/13 02:01:44;;;;;;;3.22;2.40;;;;;;;16.94;nan;-24289.03;5042049;28;20170;-67
2022/09/13 02:04:17;;;;;;;3.60;2.58;;;;;;;16.68;nan;-24282.03;5043983;28;20564;-65
2022/09/13 02:06:51;;;;;;;2.95;2.25;;;;;;;16.62;nan;-24280.38;5040197;28;20194;-65
2022/09/13 02:09:24;;;;;;;3.30;2.70;;;;;;;16.66;nan;-24281.50;5036172;28;20214;-64
2022/09/13 02:11:58;;;;;;;2.45;2.22;;;;;;;16.39;nan;-24273.78;5040785;28;20225;-66
2022/09/13 02:14:31;;;;;;;2.95;2.47;;;;;;;16.67;nan;-24281.63;5035972;28;20194;-64
2022/09/13 02:17:06;;;;;;;4.20;2.88;;;;;;;16.27;nan;-24270.72;5036048;28;20206;-66
2022/09/13 02:19:59;;;;;;;3.10;2.45;;;;;;;16.70;nan;-24282.47;5042534;28;20187;-63
2022/09/13 02:22:33;;;;;;;3.60;2.38;;;;;;;16.35;nan;-24272.97;5036748;28;20203;-63
2022/09/13 02:25:05;;;;;;;3.53;2.45;;;;;;;16.54;nan;-24278.13;5038634;28;20187;-65
2022/09/13 02:27:33;;;;;;;3.75;2.88;;;;;;;16.39;nan;-24273.94;5045568;28;20185;-65
2022/09/13 02:30:07;;;;;;;3.65;2.50;;;;;;;16.44;nan;-24275.19;5038104;28;20267;-63
2022/09/13 02:32:56;;;;;;;6.15;2.97;;;;;;;16.51;nan;-24277.28;5039808;28;20657;-68
2022/09/13 02:35:44;;;;;;;4.43;2.83;;;;;;;16.12;nan;-24266.53;5023883;28;20194;-67
2022/09/13 02:38:17;;;;;;;4.05;2.72;;;;;;;16.30;nan;-24271.41;5037800;28;20179;-63
2022/09/13 02:40:48;;;;;;;4.18;2.97;;;;;;;16.30;nan;-24271.41;5040982;28;20258;-63
2022/09/13 02:43:21;;;;;;;5.25;2.63;;;;;;;16.39;nan;-24273.94;5043103;28;20190;-65
2022/09/13 02:46:19;;;;;;;2.95;2.38;;;;;;;16.45;nan;-24275.63;5039033;28;20195;-65
2022/09/13 02:49:05;;;;;;;3.83;2.70;;;;;;;15.95;nan;-24261.63;5040464;28;20550;-63
2022/09/13 02:51:32;;;;;;;3.50;2.72;;;;;;;16.41;nan;-24274.50;5038104;28;20665;-63
2022/09/13 02:54:04;;;;;;;8.27;2.75;;;;;;;16.51;nan;-24277.28;5039972;28;20186;-65
2022/09/13 02:56:45;;;;;;;3.28;2.42;;;;;;;16.26;nan;-24270.31;5038765;28;20175;-64
2022/09/13 02:59:20;;;;;;;3.20;2.55;;;;;;;16.56;nan;-24278.53;5041128;28;20188;-64
2022/09/13 03:01:52;;;;;;;3.72;2.78;;;;;;;16.51;nan;-24277.28;5037828;28;20179;-65
2022/09/13 03:04:18;;;;;;;3.20;2.47;;;;;;;16.68;nan;-24282.03;5042307;28;20614;-64
2022/09/13 03:06:43;;;;;;;3.35;2.30;;;;;;;16.43;nan;-24275.06;5040593;28;21155;-65
2022/09/13 03:09:09;;;;;;;4.43;2.72;;;;;;;16.28;nan;-24271.00;5037791;28;20237;-63
2022/09/13 03:12:06;;;;;;;3.10;2.40;;;;;;;16.70;nan;-24282.59;5042455;28;20183;-63
2022/09/13 03:14:55;;;;;;;3.17;2.40;;;;;;;16.57;nan;-24278.81;5042333;28;20624;-63
2022/09/13 03:17:59;;;;;;;3.80;2.58;;;;;;;16.58;nan;-24279.25;5045689;28;20205;-65
2022/09/13 03:20:28;;;;;;;2.90;2.22;;;;;;;16.49;nan;-24276.72;5044512;28;20250;-63
2022/09/13 03:23:19;;;;;;;3.65;2.80;;;;;;;16.09;nan;-24265.69;5050695;28;20183;-65
2022/09/13 03:26:12;;;;;;;6.00;3.10;;;;;;;16.18;nan;-24268.06;5035749;28;20179;-65
2022/09/13 03:28:46;;;;;;;3.15;2.13;;;;;;;16.40;nan;-24274.22;5034371;28;20570;-63
2022/09/13 03:31:24;;;;;;;4.15;2.65;;;;;;;16.40;nan;-24274.06;5048376;28;20206;-64
2022/09/13 03:34:41;;;;;;;4.72;3.00;;;;;;;16.22;nan;-24269.31;5039279;28;20225;-64
2022/09/13 03:37:18;;;;;;;3.45;2.35;;;;;;;16.08;nan;-24265.28;5038399;28;20229;-65
2022/09/13 03:39:49;;;;;;;4.20;2.72;;;;;;;16.04;nan;-24264.16;5039306;28;20712;-65
2022/09/13 03:42:41;;;;;;;6.03;3.03;;;;;;;16.05;nan;-24264.56;5037010;28;20186;-63
2022/09/13 03:45:09;;;;;;;4.00;2.45;;;;;;;15.66;nan;-24253.78;5038379;28;20198;-65
2022/09/13 03:47:37;;;;;;;3.97;2.85;;;;;;;15.87;nan;-24259.53;5037928;28;20190;-64
2022/09/13 03:50:06;;;;;;;3.47;2.80;;;;;;;15.51;nan;-24249.47;5035609;28;20724;-65
2022/09/13 03:52:32;;;;;;;5.15;2.97;;;;;;;15.96;nan;-24261.91;5037241;28;20184;-63
2022/09/13 03:54:58;;;;;;;3.53;2.65;;;;;;;15.87;nan;-24259.66;5037119;28;20178;-64
2022/09/13 03:57:23;;;;;;;4.28;2.58;;;;;;;15.77;nan;-24256.72;5038598;28;20603;-64
2022/09/13 03:59:54;;;;;;;3.38;2.47;;;;;;;15.26;nan;-24242.72;5038239;28;20642;-64
2022/09/13 04:02:22;;;;;;;4.85;2.65;;;;;;;15.77;nan;-24256.88;5029585;28;20182;-65
2022/09/13 04:04:48;;;;;;;3.50;2.70;;;;;;;15.59;nan;-24251.69;5023956;28;20200;-65
2022/09/13 04:07:19;;;;;;;2.83;2.20;;;;;;;15.86;nan;-24259.25;5032978;28;22067;-63
2022/09/13 04:09:44;;;;;;;4.07;2.60;;;;;;;15.52;nan;-24249.88;5018960;28;20246;-63
2022/09/13 04:12:12;;;;;;;4.13;2.72;;;;;;;15.54;nan;-24250.31;5036107;28;20214;-63
2022/09/13 04:14:39;;;;;;;4.05;2.47;;;;;;;15.28;nan;-24243.28;5037976;28;20183;-64
2022/09/13 04:17:06;;;;;;;4.72;2.95;;;;;;;15.52;nan;-24249.88;5031176;28;20187;-66
2022/09/13 04:19:32;;;;;;;3.95;2.83;;;;;;;15.49;nan;-24249.03;5037067;28;20183;-64
2022/09/13 04:21:58;;;;;;;3.40;2.35;;;;;;;15.34;nan;-24244.84;5035451;28;20230;-65
2022/09/13 04:24:26;;;;;;;5.18;2.72;;;;;;;15.59;nan;-24251.84;5031457;28;20628;-65
2022/09/13 04:26:55;;;;;;;3.78;2.55;;;;;;;15.65;nan;-24253.50;5035594;28;20175;-66
2022/09/13 04:29:22;;;;;;;2.60;2.30;;;;;;;15.56;nan;-24250.84;5036684;28;20211;-65
2022/09/13 04:31:50;;;;;;;4.40;2.80;;;;;;;15.52;nan;-24249.75;4537970;28;20886;-65
2022/09/13 04:34:17;;;;;;;4.15;2.67;;;;;;;15.56;nan;-24251.00;4725829;28;20264;-64
2022/09/13 04:36:43;;;;;;;4.10;2.58;;;;;;;15.39;nan;-24246.38;5037204;28;20232;-65
2022/09/13 04:39:08;;;;;;;4.72;2.97;;;;;;;15.90;nan;-24260.50;5037279;28;20216;-64
2022/09/13 04:41:34;;;;;;;5.32;2.92;;;;;;;16.06;nan;-24264.72;5038242;28;20261;-67
2022/09/13 04:44:00;;;;;;;3.67;2.72;;;;;;;16.14;nan;-24267.09;5037345;28;20184;-66
2022/09/13 04:46:27;;;;;;;4.40;2.67;;;;;;;16.43;nan;-24275.06;5036739;28;20639;-68
2022/09/13 04:48:52;;;;;;;4.15;2.75;;;;;;;16.23;nan;-24269.59;5032603;28;20781;-67
2022/09/13 04:51:20;;;;;;;3.40;2.58;;;;;;;16.46;nan;-24275.75;5036641;28;20280;-67
2022/09/13 04:53:50;;;;;;;4.03;2.80;;;;;;;16.63;nan;-24280.66;5036262;28;20218;-67
2022/09/13 04:56:16;;;;;;;6.00;3.03;;;;;;;16.85;nan;-24286.50;5036778;28;20190;-67
2022/09/13 04:58:42;;;;;;;3.38;2.17;;;;;;;16.97;nan;-24289.88;5044980;28;20184;-65
2022/09/13 05:01:08;;;;;;;3.70;2.30;;;;;;;17.09;nan;-24293.22;5040693;28;20225;-65
2022/09/13 05:03:35;;;;;;;3.03;2.35;;;;;;;17.51;nan;-24304.94;5033307;28;20164;-64
2022/09/13 05:06:12;;;;;;;3.20;2.30;;;;;;;17.59;nan;-24307.03;5042536;28;20187;-64
2022/09/13 05:08:37;;;;;;;3.13;2.05;;;;;;;17.36;nan;-24300.75;5043277;28;20564;-65
2022/09/13 05:11:04;;;;;;;3.53;2.30;;;;;;;17.40;nan;-24301.72;5031521;28;20187;-64
2022/09/13 05:13:30;;;;;;;4.40;2.47;;;;;;;18.00;nan;-24318.47;5032937;28;20180;-64
2022/09/13 05:15:57;;;;;;;3.35;2.45;;;;;;;18.12;nan;-24321.69;5037078;28;20716;-66
2022/09/13 05:18:26;;;;;;;3.58;2.53;;;;;;;17.93;nan;-24316.38;5043813;28;20265;-66
2022/09/13 05:20:56;;;;;;;3.95;2.60;;;;;;;18.17;nan;-24323.06;5041491;28;20698;-64
2022/09/13 05:23:23;;;;;;;3.15;2.25;;;;;;;18.08;nan;-24320.56;5037288;28;20186;-65
2022/09/13 05:26:03;;;;;;;6.47;2.60;;;;;;;18.46;nan;-24331.00;5045171;28;20194;-66
2022/09/13 05:28:30;;;;;;;4.53;2.75;;;;;;;18.58;nan;-24334.22;5041851;28;20307;-67
2022/09/13 05:31:16;;;;;;;4.35;2.40;;;;;;;18.54;nan;-24333.38;5033221;28;20210;-65
2022/09/13 05:33:43;;;;;;;3.75;2.50;;;;;;;18.44;nan;-24330.59;5043308;28;20274;-65
2022/09/13 05:36:09;;;;;;;3.25;2.53;;;;;;;18.64;nan;-24335.91;5035434;28;20191;-65
2022/09/13 05:38:34;;;;;;;3.80;2.20;;;;;;;18.33;nan;-24327.53;5056943;28;20740;-67
2022/09/13 05:41:02;;;;;;;3.45;2.28;;;;;;;18.72;nan;-24338.13;5035518;28;20180;-67
2022/09/13 05:43:30;;;;;;;3.28;2.45;;;;;;;18.83;nan;-24341.19;5043098;28;20189;-67
2022/09/13 05:46:09;;;;;;;3.53;2.17;;;;;;;18.55;nan;-24333.53;5044453;28;20182;-67
2022/09/13 05:48:34;;;;;;;3.70;2.47;;;;;;;18.76;nan;-24339.38;5024836;28;20186;-65
2022/09/13 05:51:04;;;;;;;3.55;2.38;;;;;;;19.04;nan;-24347.03;5032430;28;20294;-67
2022/09/13 05:53:30;;;;;;;5.10;2.60;;;;;;;19.29;nan;-24354.00;5033011;28;20258;-66
2022/09/13 05:55:56;;;;;;;3.80;2.58;;;;;;;19.03;nan;-24346.63;5032647;28;20180;-67
2022/09/13 05:58:22;;;;;;;2.65;2.13;;;;;;;19.13;nan;-24349.53;5032662;28;20544;-67
2022/09/13 06:00:56;;;;;;;3.10;2.38;;;;;;;19.51;nan;-24359.97;5035090;28;20206;-67
2022/09/13 06:03:23;;;;;;;4.78;2.72;;;;;;;19.60;nan;-24362.47;5049060;28;20219;-66
2022/09/13 06:05:50;;;;;;;5.05;2.88;;;;;;;19.27;nan;-24353.44;5038743;28;20530;-67
2022/09/13 06:08:16;;;;;;;3.85;2.50;;;;;;;19.34;nan;-24355.38;5037902;28;20642;-68
2022/09/13 06:10:41;;;;;;;5.00;2.47;;;;;;;19.50;nan;-24359.69;5039615;28;20286;-66
2022/09/13 06:13:06;;;;;;;3.30;2.70;;;;;;;19.70;nan;-24365.25;5031951;28;20184;-67
2022/09/13 06:15:32;;;;;;;5.45;2.67;;;;;;;19.43;nan;-24357.75;5032093;28;20167;-67
2022/09/13 06:17:57;;;;;;;5.18;2.60;;;;;;;19.50;nan;-24359.56;5034456;28;20171;-67
2022/09/13 06:20:23;;;;;;;3.63;2.50;;;;;;;19.81;nan;-24368.19;5040872;28;20231;-66
2022/09/13 06:22:48;;;;;;;2.92;2.03;;;;;;;19.85;nan;-24369.28;5032318;28;20194;-65
2022/09/13 06:25:15;;;;;;;3.58;2.42;;;;;;;19.95;nan;-24372.06;5032293;28;20176;-64
2022/09/13 06:27:40;;;;;;;3.67;2.40;;;;;;;20.02;nan;-24373.88;5045523;28;20182;-66
2022/09/13 06:30:07;;;;;;;2.63;2.17;;;;;;;19.90;nan;-24370.69;5041889;28;20198;-64
2022/09/13 06:32:34;;;;;;;3.30;2.28;;;;;;;19.57;nan;-24361.66;5034550;28;20214;-67
2022/09/13 06:34:59;;;;;;;3.35;2.20;;;;;;;19.81;nan;-24368.19;5044019;28;20720;-64
2022/09/13 06:37:25;;;;;;;3.03;2.00;;;;;;;20.09;nan;-24375.81;5043381;28;20266;-65
2022/09/13 06:39:50;;;;;;;4.25;2.33;;;;;;;20.21;nan;-24379.28;5031669;28;20203;-64
2022/09/13 06:42:16;;;;;;;3.60;2.38;;;;;;;20.16;nan;-24377.91;5031559;28;20171;-66
2022/09/13 06:44:42;;;;;;;2.55;2.05;;;;;;;20.15;nan;-24377.63;5032293;28;20209;-66
2022/09/13 06:47:07;;;;;;;4.45;2.22;;;;;;;20.19;nan;-24378.59;5031742;28;20550;-65
2022/09/13 06:49:33;;;;;;;3.33;2.22;;;;;;;20.31;nan;-24381.94;5031915;28;20681;-63
2022/09/13 06:51:58;;;;;;;2.47;2.00;;;;;;;20.56;nan;-24388.75;5032004;28;20561;-65
2022/09/13 06:54:23;;;;;;;2.88;2.15;;;;;;;20.56;nan;-24388.75;5031943;28;20174;-65
2022/09/13 06:56:49;;;;;;;3.15;2.13;;;;;;;20.88;nan;-24397.47;5039275;28;20689;-65
2022/09/13 06:59:14;;;;;;;3.55;2.20;;;;;;;20.85;nan;-24396.78;5035138;28;20175;-66
2022/09/13 07:01:42;;;;;;;3.47;2.35;;;;;;;20.91;nan;-24398.44;5031864;28;20207;-66
2022/09/13 07:04:13;;;;;;;2.35;1.90;;;;;;;21.03;nan;-24401.63;5031669;28;20237;-65
2022/09/13 07:06:44;;;;;;;3.03;2.03;;;;;;;21.19;nan;-24405.94;5031838;28;20238;-63
2022/09/13 07:09:12;;;;;;;2.72;2.38;;;;;;;21.02;nan;-24401.50;5037923;28;20202;-64
2022/09/13 07:11:40;;;;;;;4.15;2.00;;;;;;;21.24;nan;-24407.31;5041653;28;20180;-67
2022/09/13 07:14:06;;;;;;;2.45;1.95;;;;;;;21.48;nan;-24413.97;5047394;28;20579;-64
2022/09/13 07:16:34;;;;;;;2.95;1.90;;;;;;;21.60;nan;-24417.31;5043295;28;20182;-65
2022/09/13 07:19:04;;;;;;;2.92;1.90;;;;;;;21.29;nan;-24408.72;5031519;28;20319;-65
2022/09/13 07:21:30;;;;;;;3.30;2.22;;;;;;;21.83;nan;-24423.69;5031474;28;20245;-63
2022/09/13 07:23:56;;;;;;;2.80;2.25;;;;;;;21.83;nan;-24423.69;5031265;28;20587;-66
2022/09/13 07:26:21;;;;;;;3.25;2.22;;;;;;;21.92;nan;-24426.16;5031541;28;20181;-64
2022/09/13 07:28:51;;;;;;;3.80;2.47;;;;;;;21.66;nan;-24418.97;5031291;28;20179;-64
2022/09/13 07:31:20;;;;;;;2.65;2.10;;;;;;;21.91;nan;-24425.75;5031581;28;20171;-66
2022/09/13 07:33:46;;;;;;;2.38;2.00;;;;;;;21.84;nan;-24423.81;5031134;28;20687;-65
2022/09/13 07:36:13;;;;;;;3.63;1.92;;;;;;;21.83;nan;-24423.69;5041488;28;20579;-68
2022/09/13 07:38:40;;;;;;;3.25;1.92;;;;;;;21.99;nan;-24427.97;5031394;28;20572;-67
2022/09/13 07:41:13;;;;;;;2.45;1.90;;;;;;;21.80;nan;-24422.84;5031195;28;20179;-65
2022/09/13 07:43:39;;;;;;;2.75;1.85;;;;;;;22.03;nan;-24429.09;5031303;28;20179;-65
2022/09/13 07:46:24;;;;;;;3.22;2.10;;;;;;;22.35;nan;-24437.78;5031296;28;20187;-65
2022/09/13 07:48:55;;;;;;;3.20;2.10;;;;;;;21.86;nan;-24424.50;5031187;28;20651;-66
2022/09/13 07:51:23;;;;;;;2.30;1.75;;;;;;;22.02;nan;-24428.81;5032853;28;20282;-65
2022/09/13 07:53:51;;;;;;;2.65;1.98;;;;;;;22.03;nan;-24429.22;5035712;28;20187;-65
2022/09/13 07:56:19;;;;;;;2.00;1.63;;;;;;;22.16;nan;-24432.69;5030287;28;20199;-66
2022/09/13 07:58:47;;;;;;;1.90;1.77;;;;;;;22.78;nan;-24449.56;5034707;28;20221;-64
2022/09/13 08:01:20;;;;;;;2.40;1.77;;;;;;;22.59;nan;-24444.31;5034597;28;20195;-65
2022/09/13 08:03:54;;;;;;;4.45;2.13;;;;;;;22.55;nan;-24443.19;5034728;28;20245;-64
2022/09/13 08:06:21;;;;;;;1.98;1.60;;;;;;;22.72;nan;-24448.03;5040366;28;20186;-66
2022/09/13 08:08:47;;;;;;;2.40;1.80;;;;;;;23.08;nan;-24457.72;5038725;28;20203;-66
2022/09/13 08:11:18;;;;;;;2.58;1.88;;;;;;;22.75;nan;-24448.72;5034681;28;20627;-67
2022/09/13 08:13:45;;;;;;;1.85;1.63;;;;;;;22.46;nan;-24440.84;5034763;28;20187;-64
2022/09/13 08:16:11;;;;;;;2.25;1.70;;;;;;;22.65;nan;-24446.09;5034395;28;20230;-67
2022/09/13 08:18:36;;;;;;;1.90;1.70;;;;;;;22.83;nan;-24450.94;5034472;28;20171;-64
2022/09/13 08:21:02;;;;;;;2.38;1.63;;;;;;;23.02;nan;-24456.06;5034967;28;20223;-65
2022/09/13 08:23:28;;;;;;;3.13;1.90;;;;;;;23.20;nan;-24461.03;5032583;28;20724;-66
2022/09/13 08:25:53;;;;;;;2.10;1.90;;;;;;;23.71;nan;-24474.97;5033858;28;20299;-66
2022/09/13 08:28:21;;;;;;;2.60;1.70;;;;;;;23.54;nan;-24470.41;5044814;28;20190;-63
2022/09/13 08:30:47;;;;;;;3.00;2.05;;;;;;;23.15;nan;-24459.78;5037580;28;20615;-66
2022/09/13 08:33:13;;;;;;;2.47;1.60;;;;;;;23.36;nan;-24465.44;5041665;28;20215;-64
2022/09/13 08:35:39;;;;;;;2.72;1.80;;;;;;;23.28;nan;-24463.25;5043797;28;20332;-66
2022/09/13 08:38:05;;;;;;;3.30;1.92;;;;;;;23.40;nan;-24466.41;5033640;28;20727;-65
2022/09/13 08:40:37;;;;;;;2.00;1.70;;;;;;;23.55;nan;-24470.69;5033753;28;20187;-65
2022/09/13 08:43:11;;;;;;;2.13;1.63;;;;;;;23.78;nan;-24477.03;5033770;28;20559;-67
2022/09/13 08:45:36;;;;;;;2.38;1.52;;;;;;;23.66;nan;-24473.75;5033797;28;20241;-66
2022/09/13 08:48:13;;;;;;;1.98;1.77;;;;;;;23.26;nan;-24462.81;5033620;28;20639;-64
2022/09/13 08:50:41;;;;;;;2.72;1.77;;;;;;;23.33;nan;-24464.75;5033473;28;20293;-65
2022/09/13 08:53:28;;;;;;;4.05;2.05;;;;;;;23.39;nan;-24466.28;5033257;28;20175;-63
2022/09/13 08:56:05;;;;;;;3.03;1.80;;;;;;;23.59;nan;-24471.66;5038119;28;20229;-66
2022/09/13 08:58:45;;;;;;;2.85;1.55;;;;;;;24.11;nan;-24485.88;5042809;28;20650;-67
2022/09/13 09:01:30;;;;;;;1.98;1.77;;;;;;;24.43;nan;-24494.56;5033532;28;20658;-64
2022/09/13 09:04:01;;;;;;;2.00;1.50;;;;;;;25.07;nan;-24512.19;5044162;28;20293;-64
2022/09/13 09:06:27;;;;;;;1.98;1.75;;;;;;;24.90;nan;-24507.38;5035723;28;20178;-68
2022/09/13 09:09:07;;;;;;;1.92;1.48;;;;;;;24.74;nan;-24502.97;5032822;28;20179;-67
2022/09/13 09:11:45;;;;;;;2.20;1.70;;;;;;;24.62;nan;-24499.81;5033796;28;20175;-66
2022/09/13 09:14:31;;;;;;;2.88;1.92;;;;;;;24.85;nan;-24506.13;5033571;28;20227;-64
2022/09/13 09:17:02;;;;;;;1.95;1.70;;;;;;;24.39;nan;-24493.47;5033335;28;20219;-65
2022/09/13 09:19:33;;;;;;;2.35;1.70;;;;;;;24.25;nan;-24489.59;5033662;28;20172;-65
2022/09/13 09:22:03;;;;;;;1.90;1.55;;;;;;;23.74;nan;-24475.94;5033202;28;20254;-66
2022/09/13 09:24:35;;;;;;;2.00;1.60;;;;;;;23.89;nan;-24479.94;5033110;28;20178;-66
2022/09/13 09:27:04;;;;;;;2.45;1.83;;;;;;;24.02;nan;-24483.41;5035325;28;20190;-66
2022/09/13 09:29:32;;;;;;;1.92;1.70;;;;;;;23.50;nan;-24469.19;5042174;28;20265;-67
2022/09/13 09:32:08;;;;;;;2.72;1.70;;;;;;;23.89;nan;-24479.94;5043692;28;20289;-65
2022/09/13 09:34:54;;;;;;;1.70;1.33;;;;;;;23.95;nan;-24481.47;5033312;28;20209;-67
2022/09/13 09:37:26;;;;;;;2.10;1.77;;;;;;;23.89;nan;-24479.81;5033269;28;20179;-67
2022/09/13 09:39:54;;;;;;;1.83;1.60;;;;;;;23.98;nan;-24482.28;5037410;28;20183;-67
2022/09/13 09:42:25;;;;;;;2.53;1.50;;;;;;;23.91;nan;-24480.34;5042162;28;20214;-66
2022/09/13 09:44:56;;;;;;;2.13;1.70;;;;;;;24.18;nan;-24487.94;5033004;28;20240;-65
2022/09/13 09:47:25;;;;;;;1.83;1.55;;;;;;;23.49;nan;-24468.91;5032874;28;20245;-66
2022/09/13 09:50:10;;;;;;;2.13;1.92;;;;;;;24.13;nan;-24486.56;5032676;28;20214;-67
2022/09/13 09:53:25;;;;;;;2.03;1.60;;;;;;;24.46;nan;-24495.53;5032793;28;20580;-64
2022/09/13 09:56:27;;;;;;;2.00;1.50;;;;;;;24.44;nan;-24494.97;5029716;28;20197;-65
2022/09/13 09:58:54;;;;;;;1.42;1.33;;;;;;;24.31;nan;-24491.41;5025076;28;20186;-65
2022/09/13 10:01:29;;;;;;;1.75;1.58;;;;;;;24.18;nan;-24487.81;5032238;28;20187;-68
2022/09/13 10:04:10;;;;;;;1.52;1.38;;;;;;;23.91;nan;-24480.34;5042938;28;20174;-62
2022/09/13 10:06:40;;;;;;;5.38;2.20;;;;;;;23.95;nan;-24481.59;5040125;28;20225;-63
2022/09/13 10:09:20;;;;;;;2.90;1.67;;;;;;;24.31;nan;-24491.41;5033236;28;20207;-63
2022/09/13 10:11:45;;;;;;;2.45;1.83;;;;;;;24.45;nan;-24495.13;5013075;28;20184;-63
2022/09/13 10:14:33;;;;;;;2.40;1.70;;;;;;;24.77;nan;-24503.78;5019306;28;20187;-63
2022/09/13 10:17:17;;;;;;;2.28;1.73;;;;;;;24.46;nan;-24495.53;5045949;28;20630;-63
2022/09/13 10:20:25;;;;;;;2.17;1.77;;;;;;;24.36;nan;-24492.78;5017024;28;20175;-64
2022/09/13 10:23:15;;;;;;;2.85;1.90;;;;;;;24.26;nan;-24489.88;5044603;28;20178;-63
2022/09/13 10:25:44;;;;;;;1.88;1.60;;;;;;;24.31;nan;-24491.41;5016811;28;20178;-63
2022/09/13 10:28:18;;;;;;;2.17;1.70;;;;;;;24.98;nan;-24509.72;5041823;28;20174;-64
2022/09/13 10:30:46;;;;;;;2.42;1.52;;;;;;;24.90;nan;-24507.38;5033039;28;20662;-63
2022/09/13 10:33:26;;;;;;;2.00;1.70;;;;;;;24.59;nan;-24498.97;5032007;28;20223;-63
2022/09/13 10:35:56;;;;;;;2.72;1.70;;;;;;;24.72;nan;-24502.56;5031724;28;20179;-63
2022/09/13 10:38:29;;;;;;;2.65;1.60;;;;;;;25.11;nan;-24513.03;5032135;28;20226;-63
2022/09/13 10:40:55;;;;;;;1.88;1.58;;;;;;;24.89;nan;-24507.25;5043240;28;20298;-64
2022/09/13 10:43:23;;;;;;;2.35;1.75;;;;;;;24.55;nan;-24497.88;5041884;28;20214;-63
2022/09/13 10:45:50;;;;;;;2.00;1.58;;;;;;;24.27;nan;-24490.16;5036716;28;20658;-64
2022/09/13 10:48:18;;;;;;;1.70;1.58;;;;;;;24.22;nan;-24488.78;5031478;28;20205;-63
2022/09/13 10:51:13;;;;;;;1.83;1.48;;;;;;;23.78;nan;-24476.91;5043452;28;20700;-63
2022/09/13 10:53:41;;;;;;;2.72;1.70;;;;;;;23.34;nan;-24465.03;5015045;28;20950;-63
2022/09/13 10:56:21;;;;;;;1.42;1.23;;;;;;;23.58;nan;-24471.53;5045014;28;20187;-63
2022/09/13 10:58:46;;;;;;;2.15;1.70;;;;;;;23.12;nan;-24458.94;5031337;28;20279;-63
2022/09/13 11:01:25;;;;;;;3.08;1.60;;;;;;;23.41;nan;-24466.81;5031802;28;20229;-63
2022/09/13 11:04:15;;;;;;;1.88;1.50;;;;;;;23.45;nan;-24467.94;5031620;28;20699;-63
2022/09/13 11:06:54;;;;;;;2.55;2.00;;;;;;;24.34;nan;-24492.22;5031607;28;20167;-63
2022/09/13 11:09:29;;;;;;;1.90;1.70;;;;;;;24.46;nan;-24495.41;5031340;28;20195;-63
2022/09/13 11:12:33;;;;;;;2.40;1.67;;;;;;;25.07;nan;-24512.06;5032012;28;20634;-63
2022/09/13 11:15:26;;;;;;;1.70;1.50;;;;;;;25.25;nan;-24517.00;5032511;28;20226;-63
2022/09/13 11:18:16;;;;;;;2.38;1.60;;;;;;;25.24;nan;-24516.59;5037468;28;20275;-63
2022/09/13 11:20:53;;;;;;;1.95;1.67;;;;;;;26.07;nan;-24539.31;5042117;28;20253;-63
2022/09/13 11:23:40;;;;;;;1.85;1.33;;;;;;;25.75;nan;-24530.66;5038707;28;20178;-63
2022/09/13 11:26:17;;;;;;;1.92;1.60;;;;;;;26.04;nan;-24538.34;5033750;28;20269;-63
2022/09/13 11:29:03;;;;;;;1.75;1.48;;;;;;;26.34;nan;-24546.72;5043395;28;20182;-64
2022/09/13 11:31:37;;;;;;;1.60;1.30;;;;;;;26.27;nan;-24544.78;5038863;28;20731;-63
2022/09/13 11:34:27;;;;;;;1.70;1.40;;;;;;;26.29;nan;-24545.22;5038322;28;20646;-63
2022/09/13 11:37:27;;;;;;;1.80;1.35;;;;;;;26.27;nan;-24544.66;5027750;28;20194;-64
2022/09/13 11:40:18;;;;;;;1.70;1.40;;;;;;;26.03;nan;-24538.19;5037852;28;20187;-64
2022/09/13 11:42:49;;;;;;;1.88;1.55;;;;;;;25.95;nan;-24536.13;5044942;28;20575;-63
2022/09/13 11:45:23;;;;;;;2.42;1.58;;;;;;;25.40;nan;-24521.16;5040321;28;20188;-63
2022/09/13 11:48:14;;;;;;;4.45;1.33;;;;;;;25.42;nan;-24521.69;5046352;28;20179;-63
2022/09/13 11:50:46;;;;;;;1.65;1.45;;;;;;;25.42;nan;-24521.69;5040298;28;20295;-63
2022/09/13 11:53:11;;;;;;;1.50;1.40;;;;;;;25.14;nan;-24514.00;5045320;28;20227;-62
2022/09/13 11:56:07;;;;;;;2.53;1.50;;;;;;;25.29;nan;-24517.97;5044620;28;20190;-63
2022/09/13 11:58:46;;;;;;;1.60;1.30;;;;;;;25.35;nan;-24519.63;5018191;28;20179;-63
2022/09/13 12:01:18;;;;;;;1.92;1.50;;;;;;;25.07;nan;-24512.06;5039734;28;20624;-63
2022/09/13 12:04:10;;;;;;;1.25;1.10;;;;;;;24.87;nan;-24506.69;5044179;28;20232;-63
2022/09/13 12:06:49;;;;;;;1.50;1.30;;;;;;;24.87;nan;-24506.56;5039217;28;20175;-63
2022/09/13 12:09:22;;;;;;;1.55;1.30;;;;;;;25.37;nan;-24520.31;5044013;28;20198;-63